createdAt,value
2023-04-29T00:02:20.983Z,8.43
2023-04-29T00:04:52.303Z,8.42
2023-04-29T00:07:22.510Z,8.39
2023-04-29T00:09:53.738Z,8.43
2023-04-29T00:12:24.195Z,8.50
2023-04-29T00:14:54.434Z,8.48
2023-04-29T00:17:24.984Z,8.48
2023-04-29T00:19:55.346Z,8.46
2023-04-29T00:22:25.543Z,8.41
2023-04-29T00:24:55.637Z,8.41
2023-04-29T00:27:25.844Z,8.43
2023-04-29T00:29:57.198Z,8.41
2023-04-29T00:32:27.352Z,8.40
2023-04-29T00:34:57.531Z,8.40
2023-04-29T00:37:27.657Z,8.41
2023-04-29T00:39:57.759Z,8.42
2023-04-29T00:42:29.411Z,8.39
2023-04-29T00:44:59.633Z,8.39
2023-04-29T00:47:29.899Z,8.40
2023-04-29T00:50:00.839Z,8.40
2023-04-29T00:52:34.373Z,8.38
2023-04-29T00:55:06.543Z,8.40
2023-04-29T00:57:36.729Z,8.39
2023-04-29T01:00:07.640Z,8.39
2023-04-29T01:02:38.768Z,8.38
2023-04-29T01:05:09.203Z,8.42
2023-04-29T01:08:18.385Z,8.40
2023-04-29T01:11:09.020Z,8.35
2023-04-29T01:13:50.914Z,8.39
2023-04-29T01:16:25.825Z,8.37
2023-04-29T01:19:01.632Z,8.35
2023-04-29T01:21:32.275Z,8.36
2023-04-29T01:24:02.650Z,8.30
2023-04-29T01:26:35.480Z,8.34
2023-04-29T01:29:28.949Z,8.36
2023-04-29T01:32:09.603Z,8.35
2023-04-29T01:34:44.512Z,8.26
2023-04-29T01:37:37.740Z,8.34
2023-04-29T01:40:24.242Z,8.28
2023-04-29T01:42:54.322Z,8.32
2023-04-29T01:45:25.951Z,8.30
2023-04-29T01:47:57.635Z,8.22
2023-04-29T01:50:27.849Z,8.20
2023-04-29T01:52:58.686Z,8.21
2023-04-29T01:55:28.808Z,8.24
2023-04-29T01:57:58.952Z,8.23
2023-04-29T02:00:29.090Z,8.23
2023-04-29T02:02:59.877Z,8.23
2023-04-29T02:05:34.682Z,8.21
2023-04-29T02:08:07.577Z,8.23
2023-04-29T02:10:37.751Z,8.23
2023-04-29T02:13:08.158Z,8.25
2023-04-29T02:15:38.588Z,8.22
2023-04-29T02:18:08.677Z,8.21
2023-04-29T02:20:39.454Z,8.22
2023-04-29T02:23:09.982Z,8.25
2023-04-29T02:25:40.266Z,8.25
2023-04-29T02:28:10.478Z,8.26
2023-04-29T02:30:40.773Z,8.22
2023-04-29T02:33:10.977Z,8.24
2023-04-29T02:35:41.225Z,8.20
2023-04-29T02:38:12.278Z,8.27
2023-04-29T02:40:43.515Z,8.27
2023-04-29T02:43:14.010Z,8.26
2023-04-29T02:45:44.809Z,8.25
2023-04-29T02:48:15.118Z,8.23
2023-04-29T02:50:45.242Z,8.32
2023-04-29T02:53:15.369Z,8.31
2023-04-29T02:55:45.493Z,8.37
2023-04-29T02:58:15.820Z,8.36
2023-04-29T03:00:46.057Z,8.39
2023-04-29T03:03:16.285Z,8.44
2023-04-29T03:05:46.504Z,8.44
2023-04-29T03:08:16.653Z,8.50
2023-04-29T03:10:46.831Z,8.53
2023-04-29T03:13:17.516Z,8.55
2023-04-29T03:15:47.587Z,8.58
2023-04-29T03:18:17.729Z,8.56
2023-04-29T03:20:47.863Z,8.57
2023-04-29T03:23:17.925Z,8.62
2023-04-29T03:25:48.172Z,8.61
2023-04-29T03:28:18.509Z,8.64
2023-04-29T03:30:48.638Z,8.67
2023-04-29T03:33:18.864Z,8.65
2023-04-29T03:35:49.055Z,8.56
2023-04-29T03:38:19.260Z,8.62
2023-04-29T03:40:49.412Z,8.63
2023-04-29T03:43:19.573Z,8.60
2023-04-29T03:45:49.824Z,8.65
2023-04-29T03:48:21.653Z,8.61
2023-04-29T03:50:52.250Z,8.54
2023-04-29T03:53:22.388Z,8.68
2023-04-29T03:55:52.496Z,8.66
2023-04-29T03:58:23.939Z,8.71
2023-04-29T04:00:55.248Z,8.67
2023-04-29T04:03:28.141Z,8.69
2023-04-29T04:05:58.413Z,8.68
2023-04-29T04:08:28.458Z,8.68
2023-04-29T04:11:03.236Z,8.63
2023-04-29T04:13:33.587Z,8.64
2023-04-29T04:16:03.980Z,8.67
2023-04-29T04:18:34.279Z,8.67
2023-04-29T04:21:09.167Z,8.65
2023-04-29T04:23:44.232Z,8.63
2023-04-29T04:26:14.425Z,8.69
2023-04-29T04:28:44.556Z,8.68
2023-04-29T04:31:17.761Z,8.60
2023-04-29T04:33:47.942Z,8.68
2023-04-29T04:36:18.148Z,8.76
2023-04-29T04:38:48.395Z,8.76
2023-04-29T04:41:18.545Z,8.65
2023-04-29T04:43:48.792Z,8.75
2023-04-29T04:46:19.514Z,8.72
2023-04-29T04:48:49.986Z,8.90
2023-04-29T04:51:21.038Z,8.93
2023-04-29T04:53:51.806Z,8.97
2023-04-29T04:56:22.406Z,8.99
2023-04-29T04:58:52.483Z,9.04
2023-04-29T05:01:22.665Z,9.09
2023-04-29T05:03:53.200Z,9.14
2023-04-29T05:06:23.670Z,9.16
2023-04-29T05:08:53.775Z,9.24
2023-04-29T05:11:23.973Z,9.24
2023-04-29T05:13:54.420Z,9.11
2023-04-29T05:16:24.699Z,9.19
2023-04-29T05:18:55.014Z,9.25
2023-04-29T05:21:25.182Z,9.33
2023-04-29T05:23:55.232Z,9.28
2023-04-29T05:26:25.394Z,9.35
2023-04-29T05:28:55.584Z,9.44
2023-04-29T05:31:26.568Z,9.49
2023-04-29T05:33:56.724Z,9.44
2023-04-29T05:36:28.188Z,9.54
2023-04-29T05:38:58.798Z,9.58
2023-04-29T05:41:28.935Z,9.57
2023-04-29T05:43:59.061Z,9.49
2023-04-29T05:46:29.233Z,9.68
2023-04-29T05:48:59.528Z,9.75
2023-04-29T05:51:29.651Z,9.66
2023-04-29T05:54:00.627Z,9.70
2023-04-29T05:56:31.536Z,9.70
2023-04-29T05:59:01.918Z,9.73
2023-04-29T06:01:33.121Z,9.85
2023-04-29T06:04:03.436Z,9.81
2023-04-29T06:06:34.625Z,9.97
2023-04-29T06:09:08.633Z,9.93
2023-04-29T06:11:45.167Z,9.97
2023-04-29T06:14:15.333Z,9.98
2023-04-29T06:16:45.564Z,9.99
2023-04-29T06:19:15.902Z,10.05
2023-04-29T06:21:46.094Z,10.14
2023-04-29T06:24:16.323Z,10.05
2023-04-29T06:26:46.502Z,10.25
2023-04-29T06:29:16.818Z,10.27
2023-04-29T06:31:46.962Z,10.27
2023-04-29T06:34:17.255Z,10.35
2023-04-29T06:36:47.374Z,10.35
2023-04-29T06:39:17.529Z,10.46
2023-04-29T06:41:47.644Z,10.41
2023-04-29T06:44:19.137Z,10.60
2023-04-29T06:46:49.292Z,10.70
2023-04-29T06:49:19.505Z,10.71
2023-04-29T06:51:49.593Z,10.67
2023-04-29T06:54:19.710Z,10.81
2023-04-29T06:56:49.896Z,10.85
2023-04-29T06:59:20.107Z,10.88
2023-04-29T07:01:52.295Z,10.87
2023-04-29T07:04:22.752Z,11.04
2023-04-29T07:06:54.161Z,11.13
2023-04-29T07:09:26.615Z,11.27
2023-04-29T07:11:56.865Z,11.34
2023-04-29T07:14:27.053Z,11.46
2023-04-29T07:16:57.236Z,11.60
2023-04-29T07:19:27.475Z,11.64
2023-04-29T07:21:58.282Z,11.66
2023-04-29T07:24:28.766Z,11.60
2023-04-29T07:26:59.046Z,11.67
2023-04-29T07:29:29.144Z,11.65
2023-04-29T07:31:59.370Z,11.68
2023-04-29T07:34:29.602Z,11.68
2023-04-29T07:36:59.740Z,11.82
2023-04-29T07:39:30.730Z,11.85
2023-04-29T07:42:01.018Z,11.92
2023-04-29T07:44:31.287Z,11.95
2023-04-29T07:47:01.418Z,12.00
2023-04-29T07:49:31.896Z,11.92
2023-04-29T07:52:02.577Z,12.08
2023-04-29T07:54:32.713Z,12.20
2023-04-29T07:57:04.892Z,12.27
2023-04-29T07:59:37.366Z,12.38
2023-04-29T08:02:07.522Z,12.36
2023-04-29T08:04:41.793Z,12.51
2023-04-29T08:07:12.981Z,12.51
2023-04-29T08:09:44.524Z,12.58
2023-04-29T08:12:14.890Z,12.68
2023-04-29T08:14:45.100Z,12.70
2023-04-29T08:17:15.386Z,12.78
2023-04-29T08:19:46.012Z,12.81
2023-04-29T08:22:16.195Z,12.89
2023-04-29T08:24:46.451Z,13.00
2023-04-29T08:27:16.686Z,13.14
2023-04-29T08:29:47.067Z,13.23
2023-04-29T08:32:17.441Z,13.29
2023-04-29T08:34:47.592Z,13.46
2023-04-29T08:37:18.708Z,13.56
2023-04-29T08:39:49.252Z,13.67
2023-04-29T08:42:26.076Z,13.82
2023-04-29T08:45:02.076Z,13.88
2023-04-29T08:47:34.323Z,13.95
2023-04-29T08:50:06.153Z,14.07
2023-04-29T08:52:36.576Z,14.07
2023-04-29T08:55:08.221Z,14.19
2023-04-29T08:57:40.097Z,14.25
2023-04-29T09:00:11.097Z,14.30
2023-04-29T09:02:49.650Z,14.37
2023-04-29T09:05:20.626Z,14.48
2023-04-29T09:07:51.947Z,14.52
2023-04-29T09:10:22.296Z,14.70
2023-04-29T09:12:58.309Z,14.90
2023-04-29T09:15:29.134Z,15.10
2023-04-29T09:17:59.460Z,15.19
2023-04-29T09:20:30.502Z,15.34
2023-04-29T09:23:03.789Z,15.39
2023-04-29T09:25:34.641Z,15.43
2023-04-29T09:28:31.267Z,15.47
2023-04-29T09:31:06.765Z,15.45
2023-04-29T09:33:59.151Z,15.51
2023-04-29T09:36:48.634Z,15.49
2023-04-29T09:39:23.264Z,15.52
2023-04-29T09:41:53.524Z,15.61
2023-04-29T09:44:26.214Z,15.66
2023-04-29T09:47:05.624Z,15.83
2023-04-29T09:49:38.922Z,15.93
2023-04-29T09:52:11.083Z,16.00
2023-04-29T09:54:42.844Z,16.16
2023-04-29T09:57:16.077Z,16.30
2023-04-29T09:59:47.069Z,16.43
2023-04-29T10:02:18.943Z,16.51
2023-04-29T10:04:57.769Z,16.71
2023-04-29T10:07:28.723Z,16.80
2023-04-29T10:09:58.943Z,16.82
2023-04-29T10:12:29.354Z,16.95
2023-04-29T10:15:36.916Z,17.02
2023-04-29T10:18:33.041Z,17.01
2023-04-29T10:21:09.769Z,17.08
2023-04-29T10:23:42.299Z,17.10
2023-04-29T10:26:15.054Z,17.03
2023-04-29T10:28:48.798Z,16.93
2023-04-29T10:31:20.625Z,17.13
2023-04-29T10:33:51.886Z,17.18
2023-04-29T10:36:23.809Z,17.22
2023-04-29T10:38:58.095Z,16.88
2023-04-29T10:41:42.973Z,17.28
2023-04-29T10:44:14.450Z,17.37
2023-04-29T10:46:45.024Z,17.47
2023-04-29T10:49:15.749Z,17.51
2023-04-29T10:51:46.047Z,17.63
2023-04-29T10:54:19.199Z,17.90
2023-04-29T10:56:51.736Z,18.11
2023-04-29T10:59:30.669Z,18.25
2023-04-29T11:02:00.900Z,18.32
2023-04-29T11:04:34.215Z,18.57
2023-04-29T11:07:05.366Z,18.70
2023-04-29T11:09:38.844Z,18.74
2023-04-29T11:12:13.765Z,18.85
2023-04-29T11:14:51.065Z,18.89
2023-04-29T11:17:21.721Z,18.86
2023-04-29T11:19:53.356Z,18.87
2023-04-29T11:22:27.286Z,18.84
2023-04-29T11:25:03.030Z,18.63
2023-04-29T11:27:38.805Z,18.37
2023-04-29T11:30:12.409Z,18.10
2023-04-29T11:32:45.481Z,17.90
2023-04-29T11:35:18.713Z,17.58
2023-04-29T11:37:48.943Z,17.35
2023-04-29T11:40:19.187Z,17.19
2023-04-29T11:42:50.824Z,17.04
2023-04-29T11:45:21.121Z,16.92
2023-04-29T11:47:55.341Z,16.81
2023-04-29T11:50:26.424Z,16.74
2023-04-29T11:52:59.296Z,16.68
2023-04-29T11:55:32.071Z,16.64
2023-04-29T11:58:04.394Z,16.59
2023-04-29T12:00:35.315Z,16.69
2023-04-29T12:03:15.515Z,16.74
2023-04-29T12:05:56.932Z,16.90
2023-04-29T12:08:31.116Z,16.89
2023-04-29T12:11:01.638Z,16.89
2023-04-29T12:13:31.917Z,16.71
2023-04-29T12:16:03.040Z,16.57
2023-04-29T12:18:33.493Z,16.43
2023-04-29T12:21:04.388Z,16.28
2023-04-29T12:23:36.264Z,16.19
2023-04-29T12:26:06.463Z,16.12
2023-04-29T12:28:36.668Z,16.07
2023-04-29T12:31:09.561Z,15.97
2023-04-29T12:33:44.455Z,15.95
2023-04-29T12:36:18.877Z,15.92
2023-04-29T12:38:49.847Z,15.82
2023-04-29T12:41:21.288Z,15.82
2023-04-29T12:43:51.654Z,15.75
2023-04-29T12:46:23.514Z,15.73
2023-04-29T12:48:53.794Z,15.69
2023-04-29T12:51:23.926Z,15.56
2023-04-29T12:53:54.113Z,15.67
2023-04-29T12:56:24.376Z,15.61
2023-04-29T12:58:54.568Z,15.58
2023-04-29T13:01:24.738Z,15.55
2023-04-29T13:03:57.551Z,15.63
2023-04-29T13:06:27.870Z,15.70
2023-04-29T13:08:58.497Z,15.83
2023-04-29T13:11:33.845Z,15.85
2023-04-29T13:14:06.740Z,15.90
2023-04-29T13:16:37.091Z,15.77
2023-04-29T13:19:24.682Z,15.60
2023-04-29T13:21:57.545Z,15.65
2023-04-29T13:24:27.743Z,15.00
2023-04-29T13:26:58.399Z,15.35
2023-04-29T13:29:28.630Z,15.49
2023-04-29T13:31:58.929Z,15.54
2023-04-29T13:34:29.136Z,15.55
2023-04-29T13:36:59.245Z,15.57
2023-04-29T13:39:29.445Z,15.59
2023-04-29T13:41:59.771Z,15.61
2023-04-29T13:44:36.034Z,15.62
2023-04-29T13:47:24.974Z,15.53
2023-04-29T13:55:50.007Z,15.54
2023-04-29T14:01:01.409Z,15.49
2023-04-29T14:03:18.821Z,15.42
2023-04-29T14:05:49.481Z,15.45
2023-04-29T14:08:19.698Z,15.41
2023-04-29T14:10:49.809Z,15.35
2023-04-29T14:13:20.058Z,15.35
2023-04-29T14:15:50.246Z,15.32
2023-04-29T14:18:20.707Z,15.30
2023-04-29T14:20:50.851Z,15.35
2023-04-29T14:23:21.814Z,15.42
2023-04-29T14:25:53.487Z,15.43
2023-04-29T14:28:24.757Z,15.46
2023-04-29T14:30:55.062Z,15.52
2023-04-29T14:33:25.408Z,15.53
2023-04-29T14:35:55.602Z,15.57
2023-04-29T14:38:25.827Z,15.58
2023-04-29T14:40:56.069Z,15.62
2023-04-29T14:43:26.521Z,15.64
2023-04-29T14:45:56.685Z,15.58
2023-04-29T14:48:27.022Z,15.55
2023-04-29T14:50:57.180Z,15.55
2023-04-29T14:53:27.333Z,15.60
2023-04-29T14:55:57.729Z,15.56
2023-04-29T14:58:28.422Z,15.51
2023-04-29T15:00:58.525Z,15.40
2023-04-29T15:03:28.880Z,15.29
2023-04-29T15:05:59.278Z,15.39
2023-04-29T15:08:29.849Z,15.23
2023-04-29T15:10:59.927Z,15.27
2023-04-29T15:13:31.489Z,15.22
2023-04-29T15:16:02.274Z,15.27
2023-04-29T15:18:32.540Z,15.25
2023-04-29T15:21:04.532Z,15.19
2023-04-29T15:23:34.775Z,15.08
2023-04-29T15:26:05.124Z,15.19
2023-04-29T15:28:35.281Z,15.14
2023-04-29T15:31:05.745Z,15.04
2023-04-29T15:33:36.797Z,14.99
2023-04-29T15:36:07.346Z,14.84
2023-04-29T15:38:37.461Z,14.79
2023-04-29T15:41:07.926Z,14.69
2023-04-29T15:43:40.372Z,14.65
2023-04-29T15:46:11.059Z,14.54
2023-04-29T15:48:41.418Z,14.52
2023-04-29T15:51:15.105Z,14.39
2023-04-29T15:53:45.345Z,14.45
2023-04-29T15:56:16.458Z,14.40
2023-04-29T15:58:47.462Z,14.48
2023-04-29T16:01:17.722Z,14.48
2023-04-29T16:03:48.157Z,14.44
2023-04-29T16:06:18.469Z,14.38
2023-04-29T16:08:50.268Z,14.29
2023-04-29T16:11:21.701Z,14.26
2023-04-29T16:13:51.959Z,14.15
2023-04-29T16:16:23.882Z,14.13
2023-04-29T16:18:54.280Z,14.10
2023-04-29T16:21:24.657Z,14.02
2023-04-29T16:23:55.068Z,14.01
2023-04-29T16:26:25.545Z,13.85
2023-04-29T16:28:57.011Z,13.75
2023-04-29T16:31:28.455Z,13.68
2023-04-29T16:33:58.693Z,13.61
2023-04-29T16:36:28.856Z,13.42
2023-04-29T16:38:59.294Z,13.42
2023-04-29T16:41:30.823Z,13.37
2023-04-29T16:44:01.612Z,13.30
2023-04-29T16:46:32.713Z,13.20
2023-04-29T16:49:03.275Z,13.11
2023-04-29T16:51:36.260Z,13.21
2023-04-29T16:54:08.200Z,13.30
2023-04-29T16:56:38.359Z,13.31
2023-04-29T16:59:08.656Z,13.25
2023-04-29T17:01:39.622Z,13.31
2023-04-29T17:04:11.101Z,13.22
2023-04-29T17:06:41.628Z,13.25
2023-04-29T17:09:12.322Z,13.32
2023-04-29T17:11:42.600Z,13.30
2023-04-29T17:14:12.634Z,13.30
2023-04-29T17:16:42.786Z,13.25
2023-04-29T17:19:12.912Z,13.15
2023-04-29T17:21:43.533Z,13.17
2023-04-29T17:24:13.701Z,13.15
2023-04-29T17:26:43.849Z,13.11
2023-04-29T17:29:14.032Z,13.03
2023-04-29T17:31:54.138Z,13.15
2023-04-29T17:34:25.735Z,13.08
2023-04-29T17:36:55.925Z,13.07
2023-04-29T17:39:26.202Z,13.13
2023-04-29T17:41:56.581Z,13.10
2023-04-29T17:44:26.903Z,13.05
2023-04-29T17:46:57.091Z,13.01
2023-04-29T17:49:27.181Z,13.09
2023-04-29T17:51:57.329Z,13.06
2023-04-29T17:54:29.309Z,13.02
2023-04-29T17:57:02.360Z,12.98
2023-04-29T17:59:32.524Z,12.86
2023-04-29T18:02:02.572Z,12.87
2023-04-29T18:04:32.812Z,12.85
2023-04-29T18:07:03.139Z,12.74
2023-04-29T18:09:34.841Z,12.70
2023-04-29T18:12:05.630Z,12.76
2023-04-29T18:14:35.824Z,12.77
2023-04-29T18:17:06.139Z,12.73
2023-04-29T18:19:36.322Z,12.55
2023-04-29T18:22:06.487Z,12.62
2023-04-29T18:24:36.698Z,12.63
2023-04-29T18:27:06.994Z,12.61
2023-04-29T18:29:37.150Z,12.61
2023-04-29T18:32:08.268Z,12.67
2023-04-29T18:34:38.606Z,12.69
2023-04-29T18:37:08.890Z,12.67
2023-04-29T18:39:39.477Z,12.70
2023-04-29T18:42:09.631Z,12.68
2023-04-29T18:44:40.228Z,12.71
2023-04-29T18:47:27.453Z,12.71
2023-04-29T18:49:57.899Z,12.70
2023-04-29T18:52:28.245Z,12.69
2023-04-29T18:54:58.368Z,12.57
2023-04-29T18:57:28.553Z,12.67
2023-04-29T18:59:58.695Z,12.02
2023-04-29T19:02:28.976Z,12.59
2023-04-29T19:05:03.973Z,12.56
2023-04-29T19:07:34.450Z,12.60
2023-04-29T19:10:06.006Z,12.63
2023-04-29T19:12:36.147Z,12.62
2023-04-29T19:15:08.781Z,12.61
2023-04-29T19:17:39.178Z,12.13
2023-04-29T19:20:12.976Z,11.92
2023-04-29T19:23:57.369Z,11.89
2023-04-29T19:26:44.985Z,12.06
2023-04-29T19:29:25.143Z,11.67
2023-04-29T19:31:55.590Z,11.94
2023-04-29T19:34:39.016Z,11.68
2023-04-29T19:37:10.169Z,12.01
2023-04-29T19:39:40.532Z,11.69
2023-04-29T19:42:11.231Z,11.65
2023-04-29T19:44:44.860Z,11.63
2023-04-29T19:47:15.874Z,11.53
2023-04-29T19:49:49.254Z,11.66
2023-04-29T19:52:19.652Z,11.46
2023-04-29T19:56:02.758Z,12.10
2023-04-29T19:58:37.375Z,11.66
2023-04-29T20:01:28.396Z,11.65
2023-04-29T20:03:58.729Z,11.71
2023-04-29T20:06:34.272Z,12.10
2023-04-29T20:09:07.991Z,11.49
2023-04-29T20:12:04.224Z,11.71
2023-04-29T20:14:34.758Z,11.47
2023-04-29T20:17:05.235Z,11.51
2023-04-29T20:20:02.647Z,12.00
2023-04-29T20:24:04.953Z,11.95
2023-04-29T20:26:49.229Z,11.35
2023-04-29T20:29:19.600Z,11.20
2023-04-29T20:31:59.261Z,11.16
2023-04-29T20:34:30.121Z,11.48
2023-04-29T20:37:30.587Z,11.40
2023-04-29T20:40:06.636Z,11.13
2023-04-29T20:44:12.006Z,11.43
2023-04-29T20:46:39.051Z,11.17
2023-04-29T20:50:10.619Z,11.20
2023-04-29T20:56:01.133Z,11.16
2023-04-29T20:59:47.933Z,11.69
2023-04-29T21:03:12.389Z,11.68
2023-04-29T21:06:04.644Z,11.08
2023-04-29T21:08:57.578Z,11.00
2023-04-29T21:11:44.754Z,11.13
2023-04-29T21:18:10.941Z,11.23
2023-04-29T21:21:31.697Z,11.50
2023-04-29T21:24:02.290Z,11.01
2023-04-29T21:26:45.517Z,10.84
2023-04-29T21:29:26.651Z,10.80
2023-04-29T21:32:05.303Z,10.58
2023-04-29T21:34:44.735Z,10.64
2023-04-29T21:37:50.358Z,11.18
2023-04-29T21:40:22.929Z,10.58
2023-04-29T21:43:02.245Z,10.64
2023-04-29T21:45:36.353Z,10.64
2023-04-29T21:48:15.338Z,10.98
2023-04-29T21:51:11.819Z,11.04
2023-04-29T21:53:48.291Z,10.61
2023-04-29T21:56:22.993Z,10.61
2023-04-29T21:58:53.748Z,10.35
2023-04-29T22:01:30.300Z,10.31
2023-04-29T22:04:00.566Z,10.76
2023-04-29T22:06:31.722Z,10.55
2023-04-29T22:09:02.889Z,10.83
2023-04-29T22:11:47.655Z,10.53
2023-04-29T22:14:20.657Z,10.22
2023-04-29T22:16:53.116Z,10.35
2023-04-29T22:19:23.661Z,10.65
2023-04-29T22:30:18.010Z,10.39
2023-04-29T22:33:32.449Z,10.48
2023-04-29T22:36:32.974Z,10.43
2023-04-29T22:39:12.250Z,10.00
2023-04-29T22:42:16.684Z,9.95
2023-04-29T22:44:49.517Z,9.90
2023-04-29T22:48:27.442Z,9.61
2023-04-29T22:51:22.479Z,9.59
2023-04-29T22:53:58.664Z,9.59
2023-04-29T22:57:17.839Z,10.24
2023-04-29T22:59:53.204Z,10.03
2023-04-29T23:02:29.800Z,10.00
2023-04-29T23:05:00.109Z,10.19
2023-04-29T23:07:30.351Z,10.04
2023-04-29T23:10:00.642Z,10.04
2023-04-29T23:12:30.813Z,9.95
2023-04-29T23:15:00.962Z,9.95
2023-04-29T23:17:31.075Z,9.94
2023-04-29T23:20:01.233Z,9.89
2023-04-29T23:22:31.601Z,9.84
2023-04-29T23:25:01.790Z,9.84
2023-04-29T23:27:32.002Z,9.80
2023-04-29T23:30:02.852Z,9.70
2023-04-29T23:32:33.090Z,9.68
2023-04-29T23:35:03.416Z,9.60
2023-04-29T23:37:33.722Z,9.51
2023-04-29T23:40:06.122Z,9.43
2023-04-29T23:42:36.286Z,9.41
2023-04-29T23:45:06.994Z,9.29
2023-04-29T23:47:37.333Z,9.24
2023-04-29T23:50:08.100Z,9.22
2023-04-29T23:52:38.295Z,9.24
2023-04-29T23:55:09.201Z,9.18
2023-04-29T23:57:39.312Z,9.08
